Flight Track Log - Related Links

Times and Time Zones

All times are in EDT time to prevent confusion due to time zone crossing. See the EJA122 flight status page for this flight to view local times or setup timezone preferences in your user account.

Time Position Orientation Groundspeed Altitude Reporting Facility
EDT Latitude Longitude Course Direction KTS MPH feet Rate Location/Type
Mon 06:02:30 PM 32.8667 -96.8667 320° Northwest 167 192 1,400  Level Dallas / Fort Worth TRACON
Mon 06:03:24 PM 32.9000 -96.9000 320° Northwest 204 235 4,300 3,000 Climbing Dallas / Fort Worth TRACON
Mon 06:04:24 PM 32.9500 -96.9667 312° West 295 339 7,100 3,400 Climbing Dallas / Fort Worth TRACON
Mon 06:05:24 PM 33.0167 -96.9833 348° North 296 341 11,100 3,355 Climbing Dallas / Fort Worth TRACON
Mon 06:06:56 PM 33.1583 -97.0339 343° North 339 390 15,600 2,408 Climbing Fort Worth Center
Mon 06:07:56 PM 33.2461 -97.0558 348° North 346 398 17,200 1,200 Climbing Fort Worth Center
Mon 06:08:56 PM 33.3653 -97.0878 347° North 383 441 18,000 950 Climbing Fort Worth Center
Mon 06:09:56 PM 33.4739 -97.0947 357° North 393 452 19,100 1,050 Climbing Fort Worth Center
Mon 06:10:56 PM 33.5864 -97.0967 359° North 393 452 20,100 1,050 Climbing Fort Worth Center
Mon 06:11:56 PM 33.6992 -97.0964 360° North 398 458 21,200 1,000 Climbing Fort Worth Center
Mon 06:12:56 PM 33.8097 -97.0961 360° North 403 464 22,100 900 Climbing Fort Worth Center
Mon 06:13:56 PM 33.9122 -97.0981 359° North 403 464 23,000 950 Climbing Fort Worth Center
Mon 06:14:56 PM 34.0228 -97.0953 North 403 464 24,000 1,000 Climbing Fort Worth Center
Mon 06:15:56 PM 34.1292 -97.0975 359° North 403 464 25,000 1,000 Climbing Fort Worth Center
Mon 06:16:56 PM 34.2375 -97.0969 360° North 396 456 26,000 500 Climbing Fort Worth Center
Mon 06:17:56 PM 34.3503 -97.0992 359° North 391 450 26,000  Level Fort Worth Center
Mon 06:18:56 PM 34.4650 -97.0986 360° North 403 464 26,000  Level Fort Worth Center
Mon 06:19:56 PM 34.5819 -97.0983 360° North 403 464 26,000  Level Fort Worth Center
Mon 06:20:56 PM 34.6986 -97.0953 North 408 470 26,000  Level Fort Worth Center
Mon 06:21:56 PM 34.8178 -97.0947 360° North 413 475 26,000  Level Fort Worth Center
Mon 06:22:56 PM 34.9344 -97.0969 359° North 418 481 26,000  Level Fort Worth Center
Mon 06:23:56 PM 35.0681 -97.0939 North 429 494 26,000  Level Fort Worth Center
Mon 06:24:56 PM 35.1847 -97.0936 360° North 424 488 26,000  Level Fort Worth Center
Mon 06:27:24 PM 35.4692 -97.0917 360° North 423 487 26,000  Level Kansas City Center
Mon 06:28:26 PM 35.5847 -97.0914 360° North 421 484 26,000  Level Kansas City Center
Mon 06:29:28 PM 35.6994 -97.0925 360° North 418 481 26,000 -97 Level Kansas City Center
Mon 06:30:30 PM 35.8372 -97.0925 360° North 414 476 25,800 -581 Descending Kansas City Center
Mon 06:31:32 PM 35.9536 -97.0931 360° North 419 482 24,800 -871 Descending Kansas City Center
Mon 06:32:34 PM 36.0731 -97.0925 360° North 424 488 24,000 -432 Descending Kansas City Center
Mon 06:33:37 PM 36.1922 -97.0936 360° North 428 493 23,900 -912 Descending Kansas City Center
Mon 06:34:39 PM 36.3094 -97.1169 351° North 430 495 22,100 -1,742 Descending Kansas City Center
Mon 06:35:41 PM 36.4492 -97.1483 350° North 428 493 20,300 -1,645 Descending Kansas City Center
Mon 06:36:43 PM 36.5631 -97.1747 349° North 419 482 18,700 -1,694 Descending Kansas City Center
Mon 06:37:45 PM 36.6722 -97.2064 347° North 408 470 16,800 -1,935 Descending Kansas City Center
Mon 06:38:47 PM 36.7750 -97.2275 351° North 381 438 14,700 -1,984 Descending Kansas City Center
Mon 06:39:49 PM 36.8683 -97.2489 350° North 367 422 12,700 -1,742 Descending Kansas City Center
Mon 06:40:51 PM 36.9819 -97.2753 349° North 351 404 11,100 -1,355 Descending Kansas City Center
Mon 06:41:53 PM 37.0706 -97.2947 350° North 331 381 9,900 -919 Descending Kansas City Center
Mon 06:42:55 PM 37.1494 -97.3114 350° North 297 342 9,200 -871 Descending Kansas City Center
Mon 06:43:57 PM 37.2189 -97.3308 347° North 266 306 8,100 -1,128 Descending Kansas City Center
Mon 06:45:08 PM 37.3069 -97.3264 North 273 314 6,700 -1,016 Descending Kansas City Center
Mon 06:46:01 PM 37.3619 -97.3075 15° North 270 311 6,000 -365 Descending Kansas City Center
Mon 06:47:03 PM 37.4333 -97.3069 360° North 251 289 6,000 -194 Level Kansas City Center
Mon 06:48:05 PM 37.4508 -97.3847 286° West 239 275 5,600 -823 Descending Kansas City Center
Mon 06:49:07 PM 37.4850 -97.4478 304° West 236 272 4,300 -968 Descending Kansas City Center
Mon 06:50:09 PM 37.5422 -97.4650 347° North 219 252 3,600 -919 Descending Kansas City Center
Mon 06:51:11 PM 37.5903 -97.4514 13° North 147 169 2,400 -927 Descending Kansas City Center
Mon 06:52:12 PM 37.6264 -97.4353 19° North 132 152 1,700 -689 Descending Kansas City Center
Mon 06:54:00 PM 37.6333 -97.4167 North  Level FlightAware Approximate
Mon 07:01:00 PM 37.6499 -97.4331 North  Level Estimated

Login

Don't have an account? Register now (free) for customized features, flight alerts, and more!